createdAt,value
2022-08-23T00:00:13.425Z,96.60
2022-08-23T00:02:43.746Z,96.60
2022-08-23T00:05:13.210Z,96.60
2022-08-23T00:07:45.020Z,96.60
2022-08-23T00:10:18.032Z,96.60
2022-08-23T00:12:48.517Z,96.70
2022-08-23T00:15:21.666Z,96.70
2022-08-23T00:17:51.564Z,96.50
2022-08-23T00:20:21.482Z,96.50
2022-08-23T00:22:50.981Z,96.40
2022-08-23T00:25:21.270Z,96.50
2022-08-23T00:27:50.864Z,96.20
2022-08-23T00:30:20.389Z,96.20
2022-08-23T00:32:49.772Z,96.10
2022-08-23T00:35:26.383Z,96.00
2022-08-23T00:38:31.756Z,95.90
2022-08-23T00:40:52.747Z,95.80
2022-08-23T00:43:55.823Z,95.70
2022-08-23T00:47:15.728Z,95.70
2022-08-23T00:49:50.839Z,95.60
2022-08-23T00:52:38.583Z,95.20
2022-08-23T00:55:08.623Z,95.00
2022-08-23T00:57:38.510Z,94.80
2022-08-23T01:00:10.792Z,94.60
2022-08-23T01:02:41.341Z,94.30
2022-08-23T01:05:11.316Z,94.20
2022-08-23T01:08:01.302Z,94.10
2022-08-23T01:10:35.295Z,94.00
2022-08-23T01:13:17.240Z,94.00
2022-08-23T01:16:15.007Z,93.80
2022-08-23T01:18:45.195Z,93.60
2022-08-23T01:21:41.587Z,94.00
2022-08-23T01:24:25.242Z,93.40
2022-08-23T01:27:02.532Z,93.30
2022-08-23T01:29:32.023Z,93.10
2022-08-23T01:32:01.916Z,92.90
2022-08-23T01:34:34.631Z,93.00
2022-08-23T01:37:09.062Z,92.70
2022-08-23T01:39:39.137Z,92.70
2022-08-23T01:42:10.069Z,92.60
2022-08-23T01:44:39.896Z,92.50
2022-08-23T01:47:09.537Z,92.40
2022-08-23T01:49:38.777Z,92.20
2022-08-23T01:52:10.904Z,92.10
2022-08-23T01:54:42.183Z,92.00
2022-08-23T01:57:12.274Z,91.80
2022-08-23T01:59:41.889Z,91.80
2022-08-23T02:04:45.423Z,91.50
2022-08-23T02:07:15.075Z,91.40
2022-08-23T02:09:48.217Z,91.30
2022-08-23T02:12:17.750Z,91.10
2022-08-23T02:14:47.238Z,91.10
2022-08-23T02:17:17.572Z,90.80
2022-08-23T02:19:47.413Z,90.90
2022-08-23T02:22:16.855Z,90.80
2022-08-23T02:24:47.959Z,90.70
2022-08-23T02:27:18.523Z,90.50
2022-08-23T02:29:52.785Z,90.10
2022-08-23T02:32:22.421Z,90.20
2022-08-23T02:35:05.652Z,89.50
2022-08-23T02:37:35.662Z,88.60
2022-08-23T02:40:07.734Z,88.80
2022-08-23T02:42:36.948Z,88.10
2022-08-23T02:45:09.465Z,87.20
2022-08-23T02:47:38.888Z,87.20
2022-08-23T02:50:11.333Z,86.30
2022-08-23T02:52:40.755Z,86.20
2022-08-23T02:55:10.606Z,85.70
2022-08-23T02:57:41.186Z,85.20
2022-08-23T03:00:12.891Z,84.90
2022-08-23T03:02:42.549Z,84.80
2022-08-23T03:05:14.027Z,85.00
2022-08-23T03:07:43.765Z,84.40
2022-08-23T03:10:14.185Z,84.50
2022-08-23T03:12:43.662Z,84.00
2022-08-23T03:15:13.392Z,83.80
2022-08-23T03:17:43.054Z,82.90
2022-08-23T03:20:12.955Z,81.50
2022-08-23T03:22:48.363Z,81.60
2022-08-23T03:25:24.598Z,81.60
2022-08-23T03:27:53.966Z,80.30
2022-08-23T03:30:23.342Z,79.80
2022-08-23T03:32:52.711Z,81.10
2022-08-23T03:35:22.097Z,81.50
2022-08-23T03:37:54.741Z,79.20
2022-08-23T03:40:24.589Z,80.50
2022-08-23T03:42:54.780Z,79.50
2022-08-23T03:45:23.866Z,79.80
2022-08-23T03:47:53.138Z,81.10
2022-08-23T03:50:22.412Z,81.20
2022-08-23T03:52:51.622Z,79.80
2022-08-23T03:55:21.063Z,79.60
2022-08-23T03:57:50.257Z,78.40
2022-08-23T04:00:20.246Z,79.30
2022-08-23T04:02:50.032Z,78.90
2022-08-23T04:05:19.502Z,79.40
2022-08-23T04:07:49.041Z,79.00
2022-08-23T04:10:18.799Z,79.20
2022-08-23T04:12:48.083Z,78.70
2022-08-23T04:15:17.251Z,78.90
2022-08-23T04:17:46.419Z,78.10
2022-08-23T04:20:15.509Z,77.60
2022-08-23T04:22:46.033Z,77.40
2022-08-23T04:25:34.983Z,77.40
2022-08-23T04:28:08.175Z,77.60
2022-08-23T04:30:37.529Z,77.00
2022-08-23T04:33:10.721Z,76.20
2022-08-23T04:35:40.315Z,76.50
2022-08-23T04:38:24.400Z,69.90
2022-08-23T04:41:13.205Z,76.10
2022-08-23T04:43:43.617Z,75.90
2022-08-23T04:46:16.551Z,76.10
2022-08-23T04:48:47.785Z,76.30
2022-08-23T04:51:18.212Z,75.90
2022-08-23T04:53:48.260Z,75.90
2022-08-23T04:56:17.587Z,76.00
2022-08-23T04:58:47.074Z,75.70
2022-08-23T05:01:17.384Z,75.60
2022-08-23T05:03:46.871Z,75.10
2022-08-23T05:06:16.172Z,74.90
2022-08-23T05:08:45.503Z,74.90
2022-08-23T05:11:14.904Z,74.50
2022-08-23T05:13:44.354Z,74.50
2022-08-23T05:16:14.040Z,75.00
2022-08-23T05:18:43.526Z,74.50
2022-08-23T05:21:22.051Z,74.50
2022-08-23T05:23:54.670Z,73.10
2022-08-23T05:26:24.935Z,73.10
2022-08-23T05:28:54.341Z,72.80
2022-08-23T05:31:30.434Z,74.00
2022-08-23T05:34:00.260Z,72.50
2022-08-23T05:36:29.733Z,72.20
2022-08-23T05:38:59.745Z,71.80
2022-08-23T05:41:37.732Z,71.90
2022-08-23T05:44:11.677Z,71.80
2022-08-23T05:46:43.510Z,71.60
2022-08-23T05:49:13.315Z,71.50
2022-08-23T05:51:51.649Z,70.70
2022-08-23T05:54:21.527Z,70.50
2022-08-23T05:56:50.876Z,70.70
2022-08-23T05:59:21.530Z,70.10
2022-08-23T06:01:51.126Z,70.70
2022-08-23T06:04:22.677Z,71.90
2022-08-23T06:06:52.289Z,69.90
2022-08-23T06:09:21.762Z,70.80
2022-08-23T06:11:51.401Z,69.80
2022-08-23T06:14:21.014Z,70.00
2022-08-23T06:16:55.822Z,69.60
2022-08-23T06:19:26.726Z,70.40
2022-08-23T06:21:56.709Z,69.70
2022-08-23T06:24:28.021Z,69.70
2022-08-23T06:26:57.408Z,68.80
2022-08-23T06:29:26.850Z,69.60
2022-08-23T06:31:57.062Z,71.00
2022-08-23T06:34:27.824Z,70.00
2022-08-23T06:36:59.896Z,70.10
2022-08-23T06:39:35.590Z,69.60
2022-08-23T06:42:38.022Z,70.20
2022-08-23T06:45:08.384Z,67.80
2022-08-23T06:47:38.779Z,69.10
2022-08-23T06:50:08.149Z,69.70
2022-08-23T06:52:38.050Z,69.80
2022-08-23T06:55:15.789Z,69.70
2022-08-23T06:57:45.023Z,69.70
2022-08-23T07:00:17.794Z,70.40
2022-08-23T07:02:50.251Z,70.70
2022-08-23T07:05:19.497Z,70.40
2022-08-23T07:07:48.673Z,69.50
2022-08-23T07:10:17.895Z,68.40
2022-08-23T07:12:47.047Z,68.40
2022-08-23T07:15:19.645Z,69.00
2022-08-23T07:17:49.065Z,69.40
2022-08-23T07:20:18.239Z,68.70
2022-08-23T07:22:47.484Z,68.70
2022-08-23T07:25:17.212Z,67.80
2022-08-23T07:27:47.453Z,68.60
2022-08-23T07:30:16.872Z,68.50
2022-08-23T07:32:47.297Z,69.40
2022-08-23T07:35:16.447Z,68.90
2022-08-23T07:37:45.713Z,68.10
2022-08-23T07:40:20.777Z,68.10
2022-08-23T07:42:50.052Z,68.60
2022-08-23T07:45:22.321Z,69.10
2022-08-23T07:47:55.963Z,68.50
2022-08-23T07:50:25.664Z,68.20
2022-08-23T07:52:59.866Z,68.60
2022-08-23T07:55:29.266Z,68.40
2022-08-23T07:57:58.597Z,68.50
2022-08-23T08:00:28.969Z,68.40
2022-08-23T08:02:58.363Z,67.90
2022-08-23T08:05:27.735Z,68.50
2022-08-23T08:07:57.039Z,68.60
2022-08-23T08:10:26.344Z,67.60
2022-08-23T08:12:55.500Z,68.00
2022-08-23T08:15:25.139Z,68.40
2022-08-23T08:17:54.937Z,68.20
2022-08-23T08:20:24.438Z,68.10
2022-08-23T08:22:58.569Z,68.50
2022-08-23T08:25:31.422Z,68.30
2022-08-23T08:28:00.944Z,68.60
2022-08-23T08:30:30.430Z,69.40
2022-08-23T08:32:59.646Z,69.20
2022-08-23T08:35:28.712Z,69.00
2022-08-23T08:37:57.847Z,69.10
2022-08-23T08:40:32.807Z,69.10
2022-08-23T08:43:08.044Z,69.30
2022-08-23T08:46:01.584Z,68.70
2022-08-23T08:48:36.573Z,68.70
2022-08-23T08:51:12.546Z,69.30
2022-08-23T08:53:47.180Z,69.40
2022-08-23T08:56:32.134Z,69.10
2022-08-23T08:59:08.322Z,69.10
2022-08-23T09:01:39.606Z,69.30
2022-08-23T09:04:14.114Z,69.60
2022-08-23T09:06:55.588Z,69.10
2022-08-23T09:09:49.018Z,68.60
2022-08-23T09:12:32.054Z,69.10
2022-08-23T09:15:08.113Z,69.10
2022-08-23T09:17:51.217Z,69.00
2022-08-23T09:20:22.501Z,69.30
2022-08-23T09:22:59.275Z,69.40
2022-08-23T09:25:28.468Z,69.10
2022-08-23T09:27:57.906Z,69.40
2022-08-23T09:30:55.768Z,69.60
2022-08-23T09:33:28.355Z,68.10
2022-08-23T09:36:14.270Z,69.70
2022-08-23T09:38:56.951Z,69.20
2022-08-23T09:41:30.518Z,69.10
2022-08-23T09:44:02.883Z,69.50
2022-08-23T09:46:36.824Z,69.60
2022-08-23T09:49:26.440Z,69.30
2022-08-23T09:51:59.895Z,68.30
2022-08-23T09:54:38.533Z,69.60
2022-08-23T09:57:11.496Z,68.90
2022-08-23T09:59:47.996Z,69.50
2022-08-23T10:02:31.564Z,69.10
2022-08-23T10:05:03.977Z,69.00
2022-08-23T10:07:43.654Z,69.60
2022-08-23T10:10:50.945Z,69.80
2022-08-23T10:13:21.777Z,69.80
2022-08-23T10:16:15.380Z,69.90
2022-08-23T10:19:05.803Z,69.80
2022-08-23T10:21:48.339Z,70.00
2022-08-23T10:24:41.679Z,69.70
2022-08-23T10:27:47.704Z,69.90
2022-08-23T10:30:24.737Z,69.70
2022-08-23T10:33:03.612Z,69.80
2022-08-23T10:36:11.212Z,69.80
2022-08-23T10:38:58.675Z,69.30
2022-08-23T10:41:36.926Z,70.10
2022-08-23T10:44:36.295Z,70.50
2022-08-23T10:47:43.220Z,69.50
2022-08-23T10:50:23.324Z,69.60
2022-08-23T10:53:09.565Z,71.60
2022-08-23T10:56:08.619Z,70.90
2022-08-23T10:58:49.688Z,70.70
2022-08-23T11:01:35.158Z,70.60
2022-08-23T11:04:18.469Z,71.10
2022-08-23T11:07:00.243Z,70.50
2022-08-23T11:09:30.619Z,70.90
2022-08-23T11:12:28.715Z,71.40
2022-08-23T11:15:10.636Z,70.90
2022-08-23T11:18:02.028Z,71.10
2022-08-23T11:21:35.183Z,70.90
2022-08-23T11:24:04.445Z,70.30
2022-08-23T11:26:41.970Z,71.40
2022-08-23T11:29:12.012Z,71.50
2022-08-23T11:31:49.956Z,71.70
2022-08-23T11:34:29.633Z,71.60
2022-08-23T11:37:20.786Z,71.80
2022-08-23T11:39:59.465Z,71.30
2022-08-23T11:42:40.891Z,71.60
2022-08-23T11:45:48.892Z,71.60
2022-08-23T11:48:23.046Z,71.50
2022-08-23T11:51:20.515Z,72.00
2022-08-23T11:53:55.350Z,72.10
2022-08-23T11:56:44.380Z,72.30
2022-08-23T11:59:54.881Z,72.30
2022-08-23T12:03:03.459Z,72.30
2022-08-23T12:06:04.518Z,72.40
2022-08-23T12:08:56.862Z,72.60
2022-08-23T12:11:47.375Z,72.90
2022-08-23T12:14:50.830Z,73.10
2022-08-23T12:17:21.494Z,73.10
2022-08-23T12:19:56.273Z,73.50
2022-08-23T12:22:32.106Z,73.60
2022-08-23T12:25:06.395Z,73.90
2022-08-23T12:27:38.068Z,74.00
2022-08-23T12:30:21.456Z,74.20
2022-08-23T12:33:11.890Z,74.40
2022-08-23T12:35:51.492Z,74.60
2022-08-23T12:38:48.157Z,74.80
2022-08-23T12:41:56.732Z,75.00
2022-08-23T12:44:29.523Z,75.30
2022-08-23T12:47:10.802Z,75.40
2022-08-23T12:49:40.218Z,75.40
2022-08-23T12:52:12.970Z,75.50
2022-08-23T12:54:46.276Z,75.70
2022-08-23T12:57:32.578Z,75.90
2022-08-23T13:00:20.557Z,76.00
2022-08-23T13:02:55.657Z,76.00
2022-08-23T13:05:40.173Z,75.90
2022-08-23T13:08:40.746Z,76.00
2022-08-23T13:11:11.632Z,76.00
2022-08-23T13:13:44.148Z,76.00
2022-08-23T13:16:31.621Z,76.50
2022-08-23T13:19:34.736Z,76.50
2022-08-23T13:22:28.219Z,76.80
2022-08-23T13:25:28.770Z,76.90
2022-08-23T13:28:20.392Z,77.00
2022-08-23T13:31:04.610Z,77.00
2022-08-23T13:33:34.163Z,77.30
2022-08-23T13:36:21.294Z,77.20
2022-08-23T13:38:51.459Z,76.90
2022-08-23T13:41:39.162Z,77.50
2022-08-23T13:44:10.443Z,78.00
2022-08-23T13:46:48.224Z,77.80
2022-08-23T13:49:31.890Z,78.10
2022-08-23T13:52:35.951Z,78.40
2022-08-23T13:54:53.657Z,78.40
2022-08-23T13:57:25.608Z,78.70
2022-08-23T13:59:57.892Z,78.60
2022-08-23T14:02:27.720Z,79.80
2022-08-23T14:04:57.087Z,78.30
2022-08-23T14:07:26.540Z,79.00
2022-08-23T14:09:55.892Z,78.90
2022-08-23T14:12:29.064Z,79.00
2022-08-23T14:15:00.437Z,79.60
2022-08-23T14:17:30.979Z,79.40
2022-08-23T14:22:49.905Z,79.80
2022-08-23T14:25:19.663Z,80.00
2022-08-23T14:27:50.990Z,80.10
2022-08-23T14:30:32.586Z,80.10
2022-08-23T14:33:02.770Z,81.40
2022-08-23T14:35:32.689Z,80.40
2022-08-23T14:38:03.790Z,80.30
2022-08-23T14:40:33.639Z,80.40
2022-08-23T14:43:03.373Z,80.50
2022-08-23T14:45:32.645Z,80.50
2022-08-23T14:48:02.037Z,81.40
2022-08-23T14:50:31.334Z,80.60
2022-08-23T14:53:03.698Z,80.80
2022-08-23T14:55:32.922Z,80.90
2022-08-23T14:58:02.024Z,81.00
2022-08-23T15:00:31.631Z,81.10
2022-08-23T15:03:01.190Z,81.10
2022-08-23T15:05:30.664Z,81.20
2022-08-23T15:07:59.838Z,81.20
2022-08-23T15:13:27.107Z,81.40
2022-08-23T15:15:59.524Z,81.50
2022-08-23T15:18:29.032Z,81.70
2022-08-23T15:20:58.086Z,81.60
2022-08-23T15:23:27.132Z,81.80
2022-08-23T15:25:57.396Z,81.80
2022-08-23T15:28:26.830Z,81.90
2022-08-23T15:30:56.179Z,81.90
2022-08-23T15:33:27.016Z,82.80
2022-08-23T15:36:01.881Z,82.00
2022-08-23T15:38:33.334Z,82.20
2022-08-23T15:41:02.648Z,82.30
2022-08-23T15:43:34.406Z,82.50
2022-08-23T15:46:13.949Z,82.60
2022-08-23T15:49:16.311Z,82.60
2022-08-23T15:51:47.947Z,83.60
2022-08-23T15:54:17.252Z,83.00
2022-08-23T15:56:50.816Z,83.00
2022-08-23T15:59:22.775Z,83.00
2022-08-23T16:01:52.132Z,83.20
2022-08-23T16:04:21.669Z,83.20
2022-08-23T16:06:51.036Z,83.30
2022-08-23T16:09:24.193Z,83.30
2022-08-23T16:11:57.149Z,83.50
2022-08-23T16:14:29.476Z,83.60
2022-08-23T16:16:59.359Z,83.70
2022-08-23T16:19:29.413Z,84.00
2022-08-23T16:21:58.809Z,83.60
2022-08-23T16:24:28.946Z,83.70
2022-08-23T16:26:58.541Z,83.80
2022-08-23T16:29:32.978Z,83.90
2022-08-23T16:32:05.521Z,83.90
2022-08-23T16:34:35.037Z,83.90
2022-08-23T16:37:08.176Z,83.90
2022-08-23T16:39:38.353Z,83.90
2022-08-23T16:42:08.601Z,84.00
2022-08-23T16:44:37.943Z,84.00
2022-08-23T16:47:10.507Z,84.10
2022-08-23T16:49:39.578Z,84.10
2022-08-23T16:52:08.699Z,84.20
2022-08-23T16:54:38.454Z,84.30
2022-08-23T16:57:08.120Z,84.30
2022-08-23T16:59:40.548Z,84.50
2022-08-23T17:02:40.596Z,84.50
2022-08-23T17:05:13.572Z,85.00
2022-08-23T17:07:43.199Z,85.00
2022-08-23T17:10:14.283Z,85.00
2022-08-23T17:12:47.619Z,85.10
2022-08-23T17:15:20.640Z,85.20
2022-08-23T17:17:50.981Z,86.00
2022-08-23T17:20:22.965Z,85.40
2022-08-23T17:22:53.113Z,85.30
2022-08-23T17:25:22.729Z,85.50
2022-08-23T17:27:54.335Z,85.60
2022-08-23T17:30:26.008Z,85.70
2022-08-23T17:32:55.670Z,85.80
2022-08-23T17:35:28.260Z,85.90
2022-08-23T17:38:03.127Z,86.10
2022-08-23T17:40:37.074Z,86.30
2022-08-23T17:43:07.007Z,86.30
2022-08-23T17:45:46.602Z,86.60
2022-08-23T17:48:17.872Z,86.80
2022-08-23T17:50:48.110Z,86.90
2022-08-23T17:53:19.800Z,87.30
2022-08-23T17:55:48.918Z,87.20
2022-08-23T17:58:18.656Z,87.30
2022-08-23T18:00:47.804Z,87.40
2022-08-23T18:03:16.886Z,87.50
2022-08-23T18:05:47.354Z,87.60
2022-08-23T18:08:17.734Z,87.50
2022-08-23T18:10:46.967Z,88.50
2022-08-23T18:13:16.154Z,87.60
2022-08-23T18:15:45.241Z,87.40
2022-08-23T18:18:14.368Z,87.30
2022-08-23T18:20:43.451Z,87.50
2022-08-23T18:23:12.540Z,87.50
2022-08-23T18:25:42.451Z,87.50
2022-08-23T18:28:12.433Z,87.50
2022-08-23T18:30:51.815Z,87.60
2022-08-23T18:33:25.285Z,87.70
2022-08-23T18:36:00.838Z,87.70
2022-08-23T18:38:29.947Z,87.90
2022-08-23T18:40:58.953Z,87.90
2022-08-23T18:43:37.131Z,88.10
2022-08-23T18:46:07.966Z,88.20
2022-08-23T18:48:37.685Z,88.40
2022-08-23T18:51:17.742Z,88.30
2022-08-23T18:53:48.053Z,88.30
2022-08-23T18:56:17.453Z,88.40
2022-08-23T18:58:46.795Z,88.50
2022-08-23T19:01:30.861Z,88.50
2022-08-23T19:04:00.631Z,88.80
2022-08-23T19:06:30.590Z,90.20
2022-08-23T19:09:02.002Z,89.50
2022-08-23T19:11:32.011Z,88.90
2022-08-23T19:14:02.942Z,89.80
2022-08-23T19:16:34.188Z,89.00
2022-08-23T19:19:03.765Z,89.00
2022-08-23T19:21:33.486Z,89.30
2022-08-23T19:24:02.910Z,89.30
2022-08-23T19:26:35.402Z,89.40
2022-08-23T19:29:08.880Z,89.50
2022-08-23T19:31:46.550Z,89.60
2022-08-23T19:34:18.568Z,89.60
2022-08-23T19:36:59.103Z,89.70
2022-08-23T19:39:31.737Z,89.70
2022-08-23T19:42:01.177Z,89.90
2022-08-23T19:44:32.174Z,90.00
2022-08-23T19:47:01.897Z,90.00
2022-08-23T19:49:32.612Z,90.00
2022-08-23T19:52:02.682Z,90.10
2022-08-23T19:54:32.151Z,90.20
2022-08-23T19:57:03.433Z,90.20
2022-08-23T19:59:40.240Z,90.20
2022-08-23T20:02:11.192Z,90.30
2022-08-23T20:04:40.556Z,90.40
2022-08-23T20:07:10.234Z,90.40
2022-08-23T20:09:39.578Z,90.40
2022-08-23T20:12:09.221Z,90.50
2022-08-23T20:14:38.979Z,90.50
2022-08-23T20:17:08.683Z,90.50
2022-08-23T20:19:38.236Z,90.60
2022-08-23T20:22:25.545Z,90.60
2022-08-23T20:24:54.868Z,90.70
2022-08-23T20:27:30.858Z,90.70
2022-08-23T20:30:02.431Z,91.10
2022-08-23T20:32:32.448Z,90.90
2022-08-23T20:35:03.026Z,90.90
2022-08-23T20:37:32.567Z,91.00
2022-08-23T20:40:02.199Z,91.00
2022-08-23T20:42:31.577Z,91.10
2022-08-23T20:45:00.963Z,91.10
2022-08-23T20:47:30.335Z,91.20
2022-08-23T20:49:59.625Z,91.30
2022-08-23T20:52:31.646Z,91.30
2022-08-23T20:55:04.180Z,91.30
2022-08-23T20:57:40.088Z,91.40
2022-08-23T21:00:10.212Z,91.50
2022-08-23T21:02:39.590Z,91.50
2022-08-23T21:05:09.134Z,91.60
2022-08-23T21:07:39.438Z,91.60
2022-08-23T21:10:09.017Z,91.70
2022-08-23T21:12:38.349Z,91.70
2022-08-23T21:15:10.917Z,91.80
2022-08-23T21:17:40.746Z,91.80
2022-08-23T21:20:10.377Z,91.90
2022-08-23T21:22:39.685Z,91.90
2022-08-23T21:25:09.403Z,91.90
2022-08-23T21:27:38.963Z,92.00
2022-08-23T21:30:09.474Z,92.00
2022-08-23T21:32:38.798Z,92.00
2022-08-23T21:35:09.143Z,92.10
2022-08-23T21:37:38.585Z,92.10
2022-08-23T21:40:09.287Z,92.20
2022-08-23T21:42:38.702Z,92.20
2022-08-23T21:45:10.315Z,92.20
2022-08-23T21:47:39.411Z,92.20
2022-08-23T21:50:09.337Z,92.30
2022-08-23T21:52:38.396Z,92.40
2022-08-23T21:55:07.944Z,92.40
2022-08-23T21:57:37.438Z,92.40
2022-08-23T22:00:11.342Z,92.40
2022-08-23T22:02:41.183Z,92.40
2022-08-23T22:05:13.333Z,94.10
2022-08-23T22:07:42.411Z,92.80
2022-08-23T22:10:12.203Z,92.70
2022-08-23T22:12:41.536Z,92.70
2022-08-23T22:15:11.564Z,92.70
2022-08-23T22:17:40.614Z,92.70
2022-08-23T22:20:11.912Z,92.70
2022-08-23T22:22:41.159Z,92.80
2022-08-23T22:25:10.375Z,92.80
2022-08-23T22:27:39.499Z,92.80
2022-08-23T22:30:09.033Z,92.80
2022-08-23T22:32:38.271Z,92.90
2022-08-23T22:35:07.757Z,92.90
2022-08-23T22:37:49.418Z,92.90
2022-08-23T22:40:27.653Z,92.90
2022-08-23T22:42:56.719Z,93.00
2022-08-23T22:45:26.536Z,93.00
2022-08-23T22:47:55.970Z,93.10
2022-08-23T22:50:25.331Z,93.10
2022-08-23T22:52:54.730Z,93.10
2022-08-23T22:55:24.122Z,93.20
2022-08-23T22:57:53.518Z,93.30
2022-08-23T23:00:22.971Z,93.40
2022-08-23T23:02:52.302Z,93.40
2022-08-23T23:05:21.713Z,93.50
2022-08-23T23:08:09.118Z,93.50
2022-08-23T23:10:38.491Z,93.50
2022-08-23T23:13:07.842Z,93.60
2022-08-23T23:15:37.674Z,93.60
2022-08-23T23:18:07.149Z,93.60
2022-08-23T23:20:41.292Z,93.60
2022-08-23T23:23:16.467Z,93.70
2022-08-23T23:25:47.273Z,93.70
2022-08-23T23:28:19.105Z,93.70
2022-08-23T23:30:51.513Z,93.70
2022-08-23T23:33:22.779Z,93.70
2022-08-23T23:35:53.277Z,93.80
2022-08-23T23:38:22.725Z,93.80
2022-08-23T23:40:52.462Z,93.80
2022-08-23T23:43:21.810Z,93.60
2022-08-23T23:45:56.676Z,93.60
2022-08-23T23:48:26.253Z,93.60
2022-08-23T23:50:55.567Z,93.60
2022-08-23T23:53:30.609Z,93.60
2022-08-23T23:56:04.963Z,93.60
2022-08-23T23:58:35.959Z,93.40
